Kankakee, IL

2:30 AM CDT on May 30, 2017 (GMT -0500)
Greater Kankakee

Weather History for KIKK - November, 2010

Change the Weather History Date:

Sunday, November 28, 2010

  Actual Average Record
Temperature  
Mean Temperature 32 °F -  
Max Temperature 44 °F 43 °F 68 °F (1990)
Min Temperature 19 °F 26 °F 7 °F (1977)
Degree Days  
Heating Degree Days 34    
Moisture  
Dew Point 26 °F    
Average Humidity 77    
Maximum Humidity 93    
Minimum Humidity 61    
Precipitation  
Precipitation 0.00 in - - ()
Sea Level Pressure  
Sea Level Pressure 30.19 in    
Wind  
Wind Speed 5 mph (SSE)    
Max Wind Speed 13 mph    
Max Gust Speed 17 mph    
Visibility 10 miles    
Events      
Averages and records for this station are not official NWS values.
T = Trace of Precipitation, MM = Missing Value Source: NWS Daily Summary

Daily Weather History Graph

Daily Weather History Graph

Search for Another Location

Airport or City:

Trip Planner

Search our weather history database for the weather conditions in past years. The results will help you decide how hot, cold, wet, or windy it might be!

Date:

Astronomy

Nov. 28, 2010 Rise Set
Actual Time 6:53 AM CST 4:24 PM CST
Civil Twilight 6:23 AM CST 4:55 PM CST
Nautical Twilight 5:49 AM CST 5:29 PM CST
Astronomical Twilight 5:16 AM CST 6:02 PM CST
Moon 11:57 PM CST (11/28) 11:59 AM CST (11/28)
Length of Visible Light 10h 31m
Length of Day
9h 30m
Waning Gibbous, 51% of the Moon is Illuminated
Nov 28
Waning Gibbous
Nov 28
Last Quarter
Dec 5
New
Dec 13
First Quarter
Dec 21
Full

Hourly Weather History & Observations

Time (CST) Temp. Windchill Dew Point Humidity Pressure Visibility Wind Dir Wind Speed Gust Speed Precip Events Conditions
12:02 AM 23.0 °F 17.0 °F 19.4 °F 86% 30.21 in 10.0 mi SSW 4.6 mph - N/A   Clear
12:22 AM 23.0 °F 18.4 °F 19.4 °F 86% 30.21 in 10.0 mi South 3.5 mph - N/A   Clear
12:42 AM 24.8 °F - 19.4 °F 80% 30.21 in 10.0 mi Calm Calm - N/A   Clear
1:02 AM 24.8 °F - 19.4 °F 80% 30.21 in 10.0 mi Calm Calm - N/A   Clear
1:22 AM 23.0 °F 18.4 °F 19.4 °F 86% 30.21 in 10.0 mi South 3.5 mph - N/A   Clear
1:42 AM 23.0 °F - 19.4 °F 86% 30.21 in 10.0 mi Calm Calm - N/A   Clear
2:02 AM 21.2 °F - 17.6 °F 86% 30.22 in 10.0 mi Calm Calm - N/A   Clear
2:22 AM 21.2 °F - 17.6 °F 86% 30.23 in 10.0 mi Calm Calm - N/A   Clear
2:42 AM 24.8 °F 20.5 °F 19.4 °F 80% 30.23 in 10.0 mi South 3.5 mph - N/A   Clear
3:02 AM 21.2 °F - 17.6 °F 86% 30.23 in 10.0 mi Calm Calm - N/A   Clear
3:23 AM 21.2 °F - 17.6 °F 86% 30.23 in 10.0 mi Calm Calm - N/A   Clear
3:42 AM 21.2 °F - 19.4 °F 93% 30.23 in 10.0 mi Calm Calm - N/A   Clear
4:03 AM 21.2 °F - 17.6 °F 86% 30.23 in 10.0 mi Calm Calm - N/A   Clear
4:22 AM 19.4 °F - 17.6 °F 93% 30.23 in 10.0 mi Calm Calm - N/A   Clear
4:42 AM 19.4 °F - 17.6 °F 93% 30.23 in 7.0 mi Calm Calm - N/A   Clear
5:02 AM 21.2 °F - 17.6 °F 86% 30.23 in 7.0 mi Calm Calm - N/A   Clear
5:21 AM 21.2 °F 14.9 °F 19.4 °F 93% 30.24 in 7.0 mi South 4.6 mph - N/A   Clear
5:41 AM 26.6 °F 20.0 °F 23.0 °F 86% 30.24 in 7.0 mi SSE 5.8 mph - N/A   Clear
6:01 AM 24.8 °F 17.9 °F 21.2 °F 86% 30.24 in 7.0 mi SE 5.8 mph - N/A   Clear
6:40 AM 24.8 °F 16.9 °F 21.2 °F 86% 30.25 in 7.0 mi SSE 6.9 mph - N/A   Clear
6:41 AM 24.8 °F 17.9 °F 21.2 °F 86% 30.26 in 7.0 mi SSE 5.8 mph - N/A   Clear
7:01 AM 24.8 °F 17.9 °F 21.2 °F 86% 30.26 in 7.0 mi South 5.8 mph - N/A   Clear
7:21 AM 28.4 °F 20.4 °F 24.8 °F 86% 30.26 in 10.0 mi South 8.1 mph - N/A   Clear
7:41 AM 28.4 °F 22.2 °F 24.8 °F 86% 30.27 in 10.0 mi SSE 5.8 mph - N/A   Clear
8:03 AM 28.4 °F 22.2 °F 24.8 °F 86% 30.26 in 10.0 mi SSE 5.8 mph - N/A   Clear
8:21 AM 30.2 °F 24.3 °F 26.6 °F 86% 30.26 in 10.0 mi SSE 5.8 mph - N/A   Clear
8:41 AM 33.8 °F 28.6 °F 26.6 °F 75% 30.26 in 10.0 mi SSE 5.8 mph - N/A   Clear
9:01 AM 35.6 °F 29.2 °F 28.4 °F 75% 30.26 in 10.0 mi South 8.1 mph - N/A   Clear
9:21 AM 35.6 °F 29.2 °F 28.4 °F 75% 30.25 in 10.0 mi SSE 8.1 mph - N/A   Clear
9:41 AM 37.4 °F 29.8 °F 28.4 °F 70% 30.26 in 10.0 mi South 11.5 mph - N/A   Clear
10:01 AM 37.4 °F 30.8 °F 30.2 °F 75% 30.26 in 10.0 mi South 9.2 mph - N/A   Clear
10:21 AM 39.2 °F 33.0 °F 30.2 °F 70% 30.25 in 10.0 mi SSE 9.2 mph - N/A   Clear
10:41 AM 39.2 °F 31.6 °F 30.2 °F 70% 30.24 in 10.0 mi South 12.7 mph 16.1 mph N/A   Clear
11:21 AM 41.0 °F 34.3 °F 30.2 °F 65% 30.23 in 10.0 mi SSE 11.5 mph - N/A   Clear
11:40 AM 42.8 °F 37.0 °F 30.2 °F 61% 30.22 in 10.0 mi SSE 10.4 mph - N/A   Clear
12:01 PM 42.8 °F 37.0 °F 32.0 °F 66% 30.21 in 10.0 mi South 10.4 mph - N/A   Clear
12:20 PM 42.8 °F 36.2 °F 32.0 °F 66% 30.20 in 10.0 mi SSE 12.7 mph - N/A   Clear
12:40 PM 42.8 °F 36.6 °F 32.0 °F 66% 30.19 in 10.0 mi SSE 11.5 mph 17.3 mph N/A   Clear
12:41 PM 42.8 °F 37.0 °F 32.0 °F 66% 30.19 in 10.0 mi SSE 10.4 mph 17.3 mph N/A   Clear
1:03 PM 42.8 °F 36.6 °F 32.0 °F 66% 30.18 in 10.0 mi SSE 11.5 mph - N/A   Clear
1:21 PM 44.6 °F 38.8 °F 32.0 °F 61% 30.16 in 10.0 mi SSE 11.5 mph - N/A   Clear
1:43 PM 44.6 °F 38.8 °F 32.0 °F 61% 30.15 in 10.0 mi SSE 11.5 mph - N/A   Clear
2:20 PM 44.6 °F 38.8 °F 32.0 °F 61% 30.14 in 10.0 mi SE 11.5 mph - N/A   Clear
2:23 PM 44.6 °F 38.4 °F 32.0 °F 61% 30.14 in 10.0 mi SE 12.7 mph - N/A   Clear
2:41 PM 44.6 °F 38.8 °F 32.0 °F 61% 30.15 in 10.0 mi SE 11.5 mph - N/A   Clear
3:01 PM 42.8 °F 36.2 °F 32.0 °F 66% 30.15 in 10.0 mi SE 12.7 mph - N/A   Clear
3:21 PM 42.8 °F 37.0 °F 32.0 °F 66% 30.15 in 10.0 mi SE 10.4 mph - N/A   Clear
3:41 PM 42.8 °F 36.6 °F 32.0 °F 66% 30.14 in 10.0 mi SE 11.5 mph - N/A   Clear
4:01 PM 41.0 °F 35.2 °F 32.0 °F 70% 30.14 in 10.0 mi SE 9.2 mph - N/A   Clear
4:21 PM 39.2 °F 33.0 °F 32.0 °F 75% 30.14 in 10.0 mi ESE 9.2 mph - N/A   Clear
4:41 PM 37.4 °F 31.4 °F 30.2 °F 75% 30.14 in 10.0 mi ESE 8.1 mph - N/A   Clear
5:01 PM 37.4 °F 31.4 °F 30.2 °F 75% 30.13 in 10.0 mi SE 8.1 mph - N/A   Clear
5:21 PM 37.4 °F 30.8 °F 30.2 °F 75% 30.13 in 10.0 mi ESE 9.2 mph - N/A   Clear
5:41 PM 35.6 °F 28.0 °F 30.2 °F 81% 30.13 in 10.0 mi SE 10.4 mph - N/A   Clear
6:01 PM 35.6 °F 27.1 °F 30.2 °F 81% 30.11 in 10.0 mi ESE 12.7 mph - N/A   Clear
6:21 PM 35.6 °F 27.1 °F 28.4 °F 75% 30.11 in 10.0 mi ESE 12.7 mph - N/A   Clear
6:41 PM 35.6 °F 28.6 °F 28.4 °F 75% 30.12 in 10.0 mi ESE 9.2 mph - N/A   Clear
7:02 PM 35.6 °F 29.2 °F 28.4 °F 75% 30.11 in 10.0 mi ESE 8.1 mph - N/A   Clear
7:21 PM 33.8 °F 27.0 °F 28.4 °F 81% 30.11 in 10.0 mi ESE 8.1 mph - N/A   Clear
7:42 PM 33.8 °F 27.0 °F 28.4 °F 81% 30.10 in 10.0 mi ESE 8.1 mph - N/A   Clear
8:01 PM 35.6 °F 28.6 °F 26.6 °F 70% 30.10 in 10.0 mi SE 9.2 mph - N/A   Clear
8:21 PM 35.6 °F 28.6 °F 26.6 °F 70% 30.10 in 10.0 mi SE 9.2 mph - N/A   Clear
8:42 PM 33.8 °F 26.4 °F 26.6 °F 75% 30.11 in 10.0 mi SE 9.2 mph - N/A   Clear
9:02 PM 33.8 °F 27.0 °F 26.6 °F 75% 30.10 in 10.0 mi SE 8.1 mph - N/A   Clear
9:22 PM 33.8 °F 27.0 °F 28.4 °F 81% 30.09 in 10.0 mi SE 8.1 mph - N/A   Clear
9:42 PM 33.8 °F 26.4 °F 26.6 °F 75% 30.10 in 10.0 mi SE 9.2 mph - N/A   Clear
10:01 PM 33.8 °F 27.0 °F 26.6 °F 75% 30.09 in 10.0 mi SE 8.1 mph - N/A   Clear
10:22 PM 33.8 °F 26.4 °F 28.4 °F 81% 30.09 in 10.0 mi SE 9.2 mph - N/A   Clear
10:41 PM 35.6 °F 28.0 °F 28.4 °F 75% 30.08 in 10.0 mi SE 10.4 mph - N/A   Clear
11:02 PM 35.6 °F 27.5 °F 28.4 °F 75% 30.08 in 10.0 mi SE 11.5 mph - N/A   Clear
11:22 PM 33.8 °F 27.0 °F 28.4 °F 81% 30.09 in 10.0 mi SE 8.1 mph - N/A   Clear
11:42 PM 33.8 °F 27.7 °F 28.4 °F 81% 30.09 in 10.0 mi SE 6.9 mph - N/A   Clear